Nearby METAR Reports

 

KSJC - San Jose, California, USA
Distance from station: NE 14km
Updated: 26/09/2021 00:53
Overcast
Overcast
 Wind from NW
Wind: NW 17 km/h
Temperature: 22°C
Dew Point: 14°C
Humidity: 61%
Barometer: 1013.9 hPa
Clouds: Overcast
Visibility: 16 km
Cloud details: Overcast 1524 m
2021/09/25 22:53 KSJC 252253Z 32009KT 10SM OVC050 22/14 A2994 RMK AO2 SLP137 FU OVC050 T02170139
KNUQ - Moffett Nas/Mtn, California, USA
Distance from station: N 14km
Updated: 22/08/2021 13:40
NOT Current
Overcast
Overcast
 Wind from SSE
Wind: SSE 11 km/h
Temperature: 16°C
Dew Point: 12°C
Humidity: 77%
Barometer: 1009.8 hPa
Clouds: Overcast
Visibility: 16 km
Cloud details: Overcast 549 m
2021/08/22 11:40 KNUQ 221140Z AUTO 16006KT 10SM OVC018 16/12 A2982 RMK AO2
 
KPAO - Palo Alto, California, USA
Distance from station: NNW 23km
Updated: 26/09/2021 00:47
Smoke, Clear
Smoke, Clear
 Wind from NNW
Wind: NNW 20 km/h
Temperature: 19°C
Dew Point: 14°C
Humidity: 73%
Barometer: 1014.6 hPa
Summary: Smoke
Clouds: Clear
Visibility: 16 km
2021/09/25 22:47 KPAO 252247Z 34011KT 10SM FU SKC 19/14 A2996
KRHV - San Jose/Reid, California, USA
Distance from station: ENE 19km
Updated: 26/09/2021 00:47
Clear
Clear
 Wind from NW
Wind: NW 15 km/h
Temperature: 24°C
Dew Point: 14°C
Humidity: 54%
Barometer: 1013.9 hPa
Clouds: Clear
Visibility: 16 km
2021/09/25 22:47 KRHV 252247Z 32008KT 10SM SKC 24/14 A2994
 
KOAK - Oakland, California, USA
Distance from station: NNW 50km
Updated: 26/09/2021 00:53
Partly cloudy
Partly cloudy
 Wind from WNW
Wind: WNW 22 km/h
Temperature: 18°C
Dew Point: 13°C
Humidity: 73%
Barometer: 1014.6 hPa
Clouds: Partly cloudy
Visibility: 16 km
Cloud details: Few Clouds 244 m
Few Clouds 305 m
Partly cloudy 6096 m
2021/09/25 22:53 KOAK 252253Z 30012KT 10SM FEW008 FEW010 SCT200 18/13 A2996 RMK AO2 SLP145 T01830133
KSQL - San Carlos Airpo, California, USA
Distance from station: NW 34km
Updated: 26/09/2021 00:47
Clear
Clear
 Wind from N
Wind: N 19 km/h
Temperature: 19°C
Dew Point: 14°C
Humidity: 73%
Barometer: 1014.6 hPa
Clouds: Clear
Visibility: 16 km
2021/09/25 22:47 KSQL 252247Z 01010KT 10SM CLR 19/14 A2996
 
KSFO - San Francisco, California, USA
Distance from station: NW 49km
Updated: 26/09/2021 00:56
Few Clouds
Few Clouds
 Wind from WNW
Wind: WNW 33 km/h
Temperature: 18°C
Dew Point: 12°C
Humidity: 68%
Barometer: 1014.2 hPa
Clouds: Few Clouds
Visibility: 16 km
Cloud details: Few Clouds 183 m
Few Clouds 579 m
2021/09/25 22:56 KSFO 252256Z 29018KT 10SM FEW006 FEW019 18/12 A2995 RMK AO2 SLP141 T01830122
KE16 - San Martin, California, USA
Distance from station: ESE 43km
Updated: 26/09/2021 01:35
Clear
Clear
 Wind from SE
Wind: SE 17 km/h
Temperature: 25°C
Dew Point: 12°C
Humidity: 44%
Barometer: 1013.5 hPa
Clouds: Clear
Visibility: 16 km
2021/09/25 23:35 KE16 252335Z AUTO 13009KT 10SM CLR 25/12 A2993 RMK AO2 PWINO PNO
 
KWVI - Watsonville, California, USA
Distance from station: SSE 44km
Updated: 26/09/2021 00:53
Clear
Clear
 Wind from W
Wind: W 13 km/h
Temperature: 19°C
Dew Point: 13°C
Humidity: 68%
Barometer: 1014.9 hPa
Clouds: Clear
Visibility: 16 km
2021/09/25 22:53 KWVI 252253Z AUTO 26007KT 10SM CLR 19/13 A2997 RMK AO2 SLP149 T01890133
KHAF - Half Moon Bay, California, USA
Distance from station: WNW 50km
Updated: 26/09/2021 01:35
Overcast
Overcast
 Wind from varies
Wind: varies 9 km/h
Temperature: 15°C
Dew Point: 13°C
Humidity: 88%
Barometer: 1015.6 hPa
Clouds: Overcast
Visibility: 13 km
Cloud details: Mostly cloudy 274 m
Overcast 396 m
2021/09/25 23:35 KHAF 252335Z AUTO VRB05KT 8SM BKN009 OVC013 15/13 A2999 RMK AO2 PWINO
 
KHWD - Hayward, California, USA
Distance from station: N 44km
Updated: 26/09/2021 00:54
Clear
Clear
 Wind from WNW
Wind: WNW 22 km/h
Temperature: 19°C
Dew Point: 13°C
Humidity: 68%
Barometer: 1014.2 hPa
Clouds: Clear
Visibility: 16 km
2021/09/25 22:54 KHWD 252254Z 30012KT 10SM CLR 19/13 A2995 RMK AO2 SLP150 T01890128
KLVK - Livermore, California, USA
Distance from station: NNE 51km
Updated: 26/09/2021 00:53
Clear
Clear
 Wind from NW
Wind: NW 20 km/h
Temperature: 26°C
Dew Point: 13°C
Humidity: 45%
Barometer: 1012.9 hPa
Clouds: Clear
Visibility: 16 km
2021/09/25 22:53 KLVK 252253Z 31011KT 10SM CLR 26/13 A2991 RMK AO2 SLP124 T02610128